Time;durP1;ratioP1;P1;durP2;ratioP2;P2;SDS_P1;SDS_P2;PMS_P1;PMS_P2;Temp;Humidity;BMP_temperature;BMP_pressure;BME280_temperature;BME280_humidity;BME280_pressure;Samples;Min_cycle;Max_cycle;Signal;HPM_P1;HPM_P2
2022/11/19 00:01:52;;;;;;;7.82;3.17;;;;;;;;;;5050728;28;20147;-58
2022/11/19 00:04:18;;;;;;;6.55;3.70;;;;;;;;;;5047392;28;20137;-58
2022/11/19 00:06:45;;;;;;;7.03;3.78;;;;;;;;;;5039027;28;20153;-57
2022/11/19 00:09:13;;;;;;;4.88;2.80;;;;;;;;;;5044177;28;20180;-55
2022/11/19 00:14:20;;;;;;;6.53;3.25;;;;;;;;;;5002735;28;20044;-58
2022/11/19 00:16:48;;;;;;;9.25;4.05;;;;;;;;;;5046107;28;20053;-58
2022/11/19 00:19:14;;;;;;;8.23;3.80;;;;;;;;;;5043828;28;20055;-55
2022/11/19 00:21:40;;;;;;;7.38;2.88;;;;;;;;;;5048277;28;20144;-57
2022/11/19 00:24:07;;;;;;;8.98;4.45;;;;;;;;;;5047163;28;20057;-56
2022/11/19 00:26:34;;;;;;;7.70;3.70;;;;;;;;;;5045680;28;20454;-58
2022/11/19 00:29:00;;;;;;;10.30;3.80;;;;;;;;;;5046271;28;20096;-58
2022/11/19 00:31:26;;;;;;;7.03;2.65;;;;;;;;;;5050973;28;20045;-56
2022/11/19 00:33:54;;;;;;;6.47;2.72;;;;;;;;;;5048841;28;20076;-55
2022/11/19 00:36:21;;;;;;;5.45;2.90;;;;;;;;;;5046875;28;20147;-56
2022/11/19 00:38:47;;;;;;;4.88;2.45;;;;;;;;;;5043110;28;20084;-58
2022/11/19 00:41:14;;;;;;;5.43;2.75;;;;;;;;;;5048133;28;20052;-58
2022/11/19 00:43:49;;;;;;;4.55;2.88;;;;;;;;;;5046495;28;20136;-58
2022/11/19 00:46:16;;;;;;;5.45;2.78;;;;;;;;;;5051347;28;20130;-58
2022/11/19 00:48:43;;;;;;;6.18;3.00;;;;;;;;;;5037927;28;20175;-58
2022/11/19 00:51:11;;;;;;;4.93;2.80;;;;;;;;;;5051076;28;20083;-58
2022/11/19 00:53:37;;;;;;;7.82;3.08;;;;;;;;;;5039455;28;20124;-58
2022/11/19 00:56:05;;;;;;;5.65;2.50;;;;;;;;;;5055260;28;20132;-59
2022/11/19 00:58:32;;;;;;;5.63;2.95;;;;;;;;;;5047753;28;20045;-58
2022/11/19 01:00:58;;;;;;;4.70;2.63;;;;;;;;;;5044747;28;20144;-58
2022/11/19 01:03:25;;;;;;;5.80;2.78;;;;;;;;;;5035183;28;20045;-58
2022/11/19 01:05:51;;;;;;;5.00;2.47;;;;;;;;;;5044482;28;20725;-58
2022/11/19 01:08:19;;;;;;;6.47;2.67;;;;;;;;;;5039327;28;20128;-58
2022/11/19 01:10:46;;;;;;;7.13;2.95;;;;;;;;;;5038042;28;20135;-58
2022/11/19 01:15:56;;;;;;;6.03;2.95;;;;;;;;;;5035610;28;20060;-58
2022/11/19 01:18:22;;;;;;;6.28;2.80;;;;;;;;;;5042533;28;20123;-56
2022/11/19 01:20:49;;;;;;;6.30;2.83;;;;;;;;;;5052452;28;20451;-59
2022/11/19 01:23:15;;;;;;;8.40;3.42;;;;;;;;;;5052288;28;20076;-59
2022/11/19 01:25:43;;;;;;;6.32;2.97;;;;;;;;;;5041585;28;20136;-58
2022/11/19 01:28:09;;;;;;;6.95;3.10;;;;;;;;;;5048722;28;20132;-58
2022/11/19 01:30:39;;;;;;;6.05;3.47;;;;;;;;;;5048918;28;20144;-58
2022/11/19 01:33:05;;;;;;;6.90;3.00;;;;;;;;;;5043396;28;20045;-57
2022/11/19 01:35:33;;;;;;;7.47;3.70;;;;;;;;;;5049528;28;20053;-58
2022/11/19 01:37:59;;;;;;;5.82;2.80;;;;;;;;;;5044257;28;20654;-58
2022/11/19 01:40:26;;;;;;;4.53;2.55;;;;;;;;;;5044677;28;20183;-58
2022/11/19 01:42:54;;;;;;;7.00;4.07;;;;;;;;;;5047102;28;20045;-58
2022/11/19 01:45:32;;;;;;;6.05;3.15;;;;;;;;;;5034973;28;20484;-59
2022/11/19 01:47:59;;;;;;;8.60;3.40;;;;;;;;;;5050725;28;20090;-59
2022/11/19 01:50:26;;;;;;;8.50;3.40;;;;;;;;;;5046215;28;20053;-59
2022/11/19 01:52:53;;;;;;;8.55;3.85;;;;;;;;;;5042967;28;20459;-58
2022/11/19 01:55:21;;;;;;;8.15;3.95;;;;;;;;;;5041073;28;20068;-58
2022/11/19 01:57:49;;;;;;;8.57;3.70;;;;;;;;;;5033604;28;20049;-58
2022/11/19 02:00:17;;;;;;;7.28;3.67;;;;;;;;;;5039904;28;20389;-58
2022/11/19 02:02:43;;;;;;;6.68;3.78;;;;;;;;;;5047781;28;20045;-58
2022/11/19 02:05:10;;;;;;;6.35;3.65;;;;;;;;;;5047974;28;20546;-59
2022/11/19 02:07:40;;;;;;;8.18;4.18;;;;;;;;;;5036628;28;20673;-58
2022/11/19 02:10:07;;;;;;;8.85;4.63;;;;;;;;;;5053719;28;20083;-58
2022/11/19 02:12:39;;;;;;;6.97;4.18;;;;;;;;;;5053031;28;20413;-59
2022/11/19 02:15:10;;;;;;;11.18;5.40;;;;;;;;;;5052969;28;20151;-58
2022/11/19 02:17:54;;;;;;;9.27;4.10;;;;;;;;;;5040459;28;20124;-59
2022/11/19 02:20:33;;;;;;;6.30;3.60;;;;;;;;;;5036799;28;20141;-58
2022/11/19 02:23:14;;;;;;;7.05;3.10;;;;;;;;;;5043016;28;20134;-58
2022/11/19 02:25:52;;;;;;;9.65;4.05;;;;;;;;;;5033395;28;20145;-58
2022/11/19 02:28:26;;;;;;;10.05;4.13;;;;;;;;;;5041325;28;20525;-58
2022/11/19 02:30:57;;;;;;;7.20;4.55;;;;;;;;;;5049329;28;20149;-58
2022/11/19 02:33:26;;;;;;;5.53;3.63;;;;;;;;;;5046075;28;20462;-58
2022/11/19 02:35:56;;;;;;;7.57;3.42;;;;;;;;;;5047667;28;20537;-59
2022/11/19 02:38:26;;;;;;;7.85;3.83;;;;;;;;;;5045742;28;20075;-59
2022/11/19 02:40:56;;;;;;;7.28;3.40;;;;;;;;;;5033320;28;20597;-59
2022/11/19 02:43:25;;;;;;;9.05;3.65;;;;;;;;;;5033860;28;20045;-58
2022/11/19 02:45:53;;;;;;;6.85;4.13;;;;;;;;;;5032812;28;20075;-58
2022/11/19 02:48:22;;;;;;;9.13;4.28;;;;;;;;;;5044305;28;20085;-58
2022/11/19 02:50:50;;;;;;;7.00;4.22;;;;;;;;;;5050332;28;20049;-58
2022/11/19 02:53:16;;;;;;;8.95;5.10;;;;;;;;;;5053447;28;20049;-58
2022/11/19 02:56:09;;;;;;;8.98;4.55;;;;;;;;;;5053095;28;20081;-58
2022/11/19 03:06:46;;;;;;;6.40;3.83;;;;;;;;;;5044296;28;20402;-58
2022/11/19 03:09:13;;;;;;;8.25;3.75;;;;;;;;;;5048024;28;20060;-58
2022/11/19 03:11:40;;;;;;;5.55;2.50;;;;;;;;;;5046296;28;20518;-57
2022/11/19 03:16:57;;;;;;;7.43;3.38;;;;;;;;;;5041207;28;20175;-57
2022/11/19 03:19:31;;;;;;;4.18;2.80;;;;;;;;;;5051544;28;20175;-58
2022/11/19 03:21:59;;;;;;;6.10;2.88;;;;;;;;;;5050706;28;20049;-58
2022/11/19 03:24:28;;;;;;;5.53;3.00;;;;;;;;;;5042022;28;20099;-58
2022/11/19 03:26:57;;;;;;;4.10;2.30;;;;;;;;;;5044548;28;20049;-58
2022/11/19 03:29:24;;;;;;;4.30;2.40;;;;;;;;;;5050335;28;20569;-57
2022/11/19 03:31:52;;;;;;;4.40;2.53;;;;;;;;;;5040741;28;20389;-58
2022/11/19 03:34:22;;;;;;;4.80;2.97;;;;;;;;;;5045697;28;20053;-58
2022/11/19 03:36:52;;;;;;;5.07;2.50;;;;;;;;;;5039540;28;20136;-58
2022/11/19 03:39:20;;;;;;;4.78;2.67;;;;;;;;;;5042970;28;20077;-59
2022/11/19 03:41:48;;;;;;;6.40;3.40;;;;;;;;;;5045991;28;20437;-58
2022/11/19 03:44:16;;;;;;;6.80;3.38;;;;;;;;;;5044244;28;20525;-58
2022/11/19 03:46:44;;;;;;;5.43;3.15;;;;;;;;;;5041154;28;20156;-58
2022/11/19 03:49:11;;;;;;;7.35;3.40;;;;;;;;;;5032079;28;20060;-57
2022/11/19 03:51:41;;;;;;;6.32;3.65;;;;;;;;;;5044432;28;20504;-57
2022/11/19 03:54:09;;;;;;;6.25;3.65;;;;;;;;;;5043377;28;20469;-57
2022/11/19 03:56:37;;;;;;;6.38;3.50;;;;;;;;;;5048058;28;20053;-58
2022/11/19 03:59:04;;;;;;;7.80;3.60;;;;;;;;;;5038709;28;20414;-58
2022/11/19 04:01:32;;;;;;;9.40;4.40;;;;;;;;;;5043996;28;20785;-58
2022/11/19 04:06:42;;;;;;;9.20;4.10;;;;;;;;;;5042425;28;20051;-58
2022/11/19 04:09:10;;;;;;;9.88;4.30;;;;;;;;;;5042514;28;20504;-58
2022/11/19 04:11:36;;;;;;;8.63;3.92;;;;;;;;;;5032811;28;20137;-58
2022/11/19 04:14:03;;;;;;;6.50;4.30;;;;;;;;;;5044273;28;20485;-58
2022/11/19 04:16:29;;;;;;;7.22;3.60;;;;;;;;;;5038390;28;20088;-58
2022/11/19 04:18:56;;;;;;;7.78;4.35;;;;;;;;;;5052247;28;20087;-58
2022/11/19 04:21:22;;;;;;;9.45;4.28;;;;;;;;;;5044027;28;20164;-59
2022/11/19 04:23:48;;;;;;;9.68;4.82;;;;;;;;;;5047517;28;20095;-58
2022/11/19 04:26:16;;;;;;;8.75;3.88;;;;;;;;;;5041749;28;20137;-58
2022/11/19 04:28:42;;;;;;;7.97;4.10;;;;;;;;;;5054602;28;20135;-56
2022/11/19 04:31:09;;;;;;;6.40;3.60;;;;;;;;;;5042265;28;20048;-57
2022/11/19 04:33:35;;;;;;;7.20;3.58;;;;;;;;;;5040865;28;20059;-58
2022/11/19 04:36:01;;;;;;;5.75;3.58;;;;;;;;;;5054585;28;20148;-58
2022/11/19 04:38:28;;;;;;;7.57;3.75;;;;;;;;;;5042411;28;20054;-58
2022/11/19 04:40:54;;;;;;;5.57;3.80;;;;;;;;;;5054734;28;20144;-58
2022/11/19 04:43:22;;;;;;;7.03;3.70;;;;;;;;;;5054767;28;20137;-58
2022/11/19 04:45:48;;;;;;;4.57;3.20;;;;;;;;;;5054639;28;20140;-58
2022/11/19 04:48:15;;;;;;;8.95;4.03;;;;;;;;;;5035247;28;20126;-57
2022/11/19 04:50:41;;;;;;;7.15;3.50;;;;;;;;;;5040436;28;20079;-58
2022/11/19 04:53:08;;;;;;;8.05;3.47;;;;;;;;;;5053231;28;20517;-58
2022/11/19 04:55:34;;;;;;;5.60;2.83;;;;;;;;;;5051409;28;20129;-58
2022/11/19 04:58:01;;;;;;;6.47;3.15;;;;;;;;;;5047094;28;20136;-58
2022/11/19 05:00:28;;;;;;;5.50;2.95;;;;;;;;;;5035218;28;20160;-58
2022/11/19 05:02:55;;;;;;;4.75;2.80;;;;;;;;;;5035038;28;20490;-58
2022/11/19 05:05:21;;;;;;;5.28;2.53;;;;;;;;;;5035045;28;20125;-57
2022/11/19 05:07:47;;;;;;;7.00;3.20;;;;;;;;;;5054487;28;20132;-57
2022/11/19 05:10:14;;;;;;;5.40;2.65;;;;;;;;;;5054528;28;20163;-57
2022/11/19 05:12:40;;;;;;;6.03;2.40;;;;;;;;;;5047381;28;20053;-58
2022/11/19 05:15:07;;;;;;;5.63;2.80;;;;;;;;;;5047789;28;20060;-58
2022/11/19 05:17:35;;;;;;;5.28;2.20;;;;;;;;;;5034696;28;20698;-58
2022/11/19 05:20:01;;;;;;;5.75;2.65;;;;;;;;;;5036109;28;20136;-57
2022/11/19 05:22:28;;;;;;;5.90;3.33;;;;;;;;;;5054455;28;20088;-58
2022/11/19 05:24:54;;;;;;;5.03;2.83;;;;;;;;;;5041255;28;20136;-58
2022/11/19 05:27:20;;;;;;;5.43;2.47;;;;;;;;;;5053434;28;20136;-55
2022/11/19 05:29:47;;;;;;;6.28;3.25;;;;;;;;;;5034420;28;20097;-58
2022/11/19 05:32:13;;;;;;;7.15;3.28;;;;;;;;;;5047809;28;20128;-58
2022/11/19 05:34:41;;;;;;;7.60;4.00;;;;;;;;;;5034213;28;20140;-58
2022/11/19 05:37:07;;;;;;;10.27;4.20;;;;;;;;;;5047378;28;20136;-58
2022/11/19 05:39:34;;;;;;;7.40;4.20;;;;;;;;;;5043259;28;20057;-57
2022/11/19 05:42:00;;;;;;;9.20;3.88;;;;;;;;;;5038583;28;20107;-58
2022/11/19 05:44:26;;;;;;;10.30;5.20;;;;;;;;;;5034885;28;20128;-56
2022/11/19 05:46:55;;;;;;;10.95;5.35;;;;;;;;;;5036518;28;20139;-57
2022/11/19 05:49:22;;;;;;;11.20;5.90;;;;;;;;;;5043765;28;20053;-58
2022/11/19 05:51:49;;;;;;;10.68;6.78;;;;;;;;;;5044940;28;20144;-58
2022/11/19 05:54:16;;;;;;;13.20;6.20;;;;;;;;;;5049111;28;20044;-56
2022/11/19 05:56:42;;;;;;;11.95;6.50;;;;;;;;;;5051592;28;20136;-58
2022/11/19 05:59:08;;;;;;;15.60;6.85;;;;;;;;;;5047142;28;20433;-58
2022/11/19 06:01:35;;;;;;;13.27;7.20;;;;;;;;;;5038317;28;20132;-57
2022/11/19 06:04:01;;;;;;;12.98;6.93;;;;;;;;;;5044518;28;20131;-58
2022/11/19 06:06:28;;;;;;;13.75;7.60;;;;;;;;;;5044192;28;20140;-58
2022/11/19 06:08:56;;;;;;;17.40;7.70;;;;;;;;;;5040019;28;20535;-57
2022/11/19 06:14:06;;;;;;;15.10;7.55;;;;;;;;;;5026059;28;20049;-57
2022/11/19 06:16:32;;;;;;;12.60;6.60;;;;;;;;;;5045619;28;20053;-55
2022/11/19 06:18:58;;;;;;;12.65;7.13;;;;;;;;;;5041686;28;20045;-58
2022/11/19 06:21:25;;;;;;;15.13;7.20;;;;;;;;;;5046546;28;20059;-56
2022/11/19 06:23:51;;;;;;;12.73;7.40;;;;;;;;;;5040240;28;20136;-55
2022/11/19 06:26:23;;;;;;;13.30;6.28;;;;;;;;;;5041263;28;20157;-57
2022/11/19 06:28:49;;;;;;;12.10;6.57;;;;;;;;;;5051061;28;20072;-56
2022/11/19 06:31:15;;;;;;;14.32;6.47;;;;;;;;;;5033659;28;20136;-58
2022/11/19 06:33:42;;;;;;;14.18;7.45;;;;;;;;;;5036314;28;20076;-58
2022/11/19 06:36:09;;;;;;;13.35;6.97;;;;;;;;;;5048444;28;20135;-58
2022/11/19 06:38:35;;;;;;;13.82;6.30;;;;;;;;;;5039909;28;20045;-58
2022/11/19 06:41:01;;;;;;;13.27;6.97;;;;;;;;;;5045175;28;20475;-58
2022/11/19 06:43:29;;;;;;;13.07;7.13;;;;;;;;;;5047365;28;20059;-58
2022/11/19 06:45:56;;;;;;;14.50;7.38;;;;;;;;;;5049970;28;20049;-58
2022/11/19 06:48:22;;;;;;;13.32;6.57;;;;;;;;;;5045866;28;20135;-58
2022/11/19 06:50:48;;;;;;;13.52;6.70;;;;;;;;;;5040444;28;20455;-58
2022/11/19 06:53:15;;;;;;;13.43;6.90;;;;;;;;;;5046795;28;20162;-58
2022/11/19 06:55:41;;;;;;;13.98;6.50;;;;;;;;;;5055386;28;20072;-58
2022/11/19 06:58:08;;;;;;;14.35;6.80;;;;;;;;;;5044808;28;20644;-58
2022/11/19 07:00:36;;;;;;;12.25;6.43;;;;;;;;;;5033032;28;20136;-58
2022/11/19 07:03:03;;;;;;;12.80;6.88;;;;;;;;;;5032828;28;20133;-57
2022/11/19 07:05:29;;;;;;;16.55;8.13;;;;;;;;;;5033238;28;20054;-55
2022/11/19 07:07:55;;;;;;;12.77;6.70;;;;;;;;;;5044457;28;20132;-57
2022/11/19 07:10:22;;;;;;;15.75;7.75;;;;;;;;;;5033576;28;20352;-57
2022/11/19 07:12:48;;;;;;;16.05;6.88;;;;;;;;;;5032872;28;20049;-58
2022/11/19 07:15:15;;;;;;;13.70;6.60;;;;;;;;;;5033201;28;20061;-58
2022/11/19 07:17:42;;;;;;;12.27;6.72;;;;;;;;;;5032497;28;20049;-58
2022/11/19 07:20:10;;;;;;;12.63;6.63;;;;;;;;;;5045033;28;20048;-58
2022/11/19 07:22:37;;;;;;;13.32;6.97;;;;;;;;;;5043325;28;20052;-58
2022/11/19 07:25:03;;;;;;;13.13;7.03;;;;;;;;;;5038239;28;20046;-58
2022/11/19 07:27:29;;;;;;;17.27;8.15;;;;;;;;;;5049609;28;20084;-58
2022/11/19 07:29:56;;;;;;;15.75;7.35;;;;;;;;;;5042997;28;20073;-58
2022/11/19 07:32:22;;;;;;;13.63;7.35;;;;;;;;;;5047701;28;20143;-58
2022/11/19 07:34:50;;;;;;;13.63;7.07;;;;;;;;;;5042056;28;20450;-58
2022/11/19 07:37:17;;;;;;;14.27;7.40;;;;;;;;;;5048114;28;20128;-58
2022/11/19 07:39:45;;;;;;;15.48;7.53;;;;;;;;;;5041609;28;20060;-58
2022/11/19 07:44:56;;;;;;;16.60;8.27;;;;;;;;;;5038754;28;20112;-57
2022/11/19 07:47:22;;;;;;;18.50;9.25;;;;;;;;;;5045426;28;20394;-58
2022/11/19 07:49:50;;;;;;;18.67;8.63;;;;;;;;;;5032677;28;20081;-58
2022/11/19 07:52:16;;;;;;;12.50;7.13;;;;;;;;;;5044480;28;20046;-56
2022/11/19 07:54:42;;;;;;;16.65;8.07;;;;;;;;;;5048363;28;20123;-58
2022/11/19 07:57:10;;;;;;;15.27;8.35;;;;;;;;;;5047040;28;20625;-58
2022/11/19 07:59:37;;;;;;;16.27;8.02;;;;;;;;;;5055905;28;20081;-58
2022/11/19 08:02:03;;;;;;;17.55;7.57;;;;;;;;;;5043719;28;20136;-58
2022/11/19 08:04:30;;;;;;;13.85;7.47;;;;;;;;;;5035775;28;20471;-57
2022/11/19 08:06:57;;;;;;;15.00;7.65;;;;;;;;;;5048603;28;20088;-58
2022/11/19 08:09:24;;;;;;;15.27;7.68;;;;;;;;;;5036461;28;20132;-58
2022/11/19 08:11:50;;;;;;;16.17;6.82;;;;;;;;;;5036324;28;20148;-58
2022/11/19 08:14:17;;;;;;;14.45;7.38;;;;;;;;;;5042478;28;20469;-58
2022/11/19 08:19:27;;;;;;;15.05;7.70;;;;;;;;;;5037003;28;20061;-58
2022/11/19 08:21:53;;;;;;;15.32;7.57;;;;;;;;;;5048172;28;20088;-58
2022/11/19 08:24:21;;;;;;;16.50;7.40;;;;;;;;;;5051052;28;20061;-58
2022/11/19 08:26:48;;;;;;;13.15;7.10;;;;;;;;;;5041055;28;20056;-58
2022/11/19 08:29:15;;;;;;;15.48;7.90;;;;;;;;;;5041567;28;20431;-58
2022/11/19 08:31:42;;;;;;;15.90;7.78;;;;;;;;;;5046317;28;20064;-57
2022/11/19 08:34:09;;;;;;;17.17;8.07;;;;;;;;;;5052306;28;20069;-58
2022/11/19 08:36:35;;;;;;;28.80;12.23;;;;;;;;;;5039030;28;20068;-58
2022/11/19 08:39:02;;;;;;;30.35;13.00;;;;;;;;;;5050177;28;20725;-58
2022/11/19 08:44:14;;;;;;;15.65;6.90;;;;;;;;;;5034752;28;20160;-58
2022/11/19 08:46:41;;;;;;;11.30;6.75;;;;;;;;;;5038176;28;20085;-58
2022/11/19 08:49:08;;;;;;;14.70;7.15;;;;;;;;;;5051280;28;20087;-57
2022/11/19 08:51:34;;;;;;;13.75;6.68;;;;;;;;;;5042089;28;20170;-58
2022/11/19 08:54:00;;;;;;;13.80;7.32;;;;;;;;;;5049490;28;20128;-55
2022/11/19 08:56:27;;;;;;;16.58;8.05;;;;;;;;;;5049837;28;20151;-58
2022/11/19 08:58:55;;;;;;;12.27;6.88;;;;;;;;;;5053155;28;20048;-57
2022/11/19 09:01:21;;;;;;;11.63;6.50;;;;;;;;;;5044380;28;20131;-57
2022/11/19 09:03:47;;;;;;;16.75;6.63;;;;;;;;;;5044120;28;20052;-58
2022/11/19 09:06:14;;;;;;;14.02;7.55;;;;;;;;;;5046217;28;20136;-59
2022/11/19 09:08:40;;;;;;;16.33;7.40;;;;;;;;;;5044493;28;20137;-58
2022/11/19 09:11:08;;;;;;;14.70;7.07;;;;;;;;;;5048408;28;20049;-57
2022/11/19 09:13:34;;;;;;;14.93;7.32;;;;;;;;;;5043962;28;20143;-55
2022/11/19 09:16:02;;;;;;;13.43;6.60;;;;;;;;;;5045519;28;20051;-58
2022/11/19 09:18:28;;;;;;;17.15;7.32;;;;;;;;;;5054078;28;20072;-55
2022/11/19 09:20:55;;;;;;;16.92;7.32;;;;;;;;;;5045494;28;20143;-58
2022/11/19 09:23:22;;;;;;;15.43;6.28;;;;;;;;;;5043324;28;20056;-58
2022/11/19 09:25:54;;;;;;;14.95;6.60;;;;;;;;;;5040198;28;20055;-58
2022/11/19 09:28:20;;;;;;;19.08;7.30;;;;;;;;;;5053838;28;20525;-58
2022/11/19 09:30:54;;;;;;;14.27;6.95;;;;;;;;;;5039818;28;20052;-57
2022/11/19 09:33:21;;;;;;;15.63;7.95;;;;;;;;;;5037187;28;20056;-58
2022/11/19 09:35:48;;;;;;;14.70;7.32;;;;;;;;;;5038245;28;20055;-57
2022/11/19 09:38:14;;;;;;;17.23;7.80;;;;;;;;;;5043821;28;20049;-58
2022/11/19 09:40:43;;;;;;;14.20;8.93;;;;;;;;;;5047477;28;20085;-58
2022/11/19 09:43:15;;;;;;;12.98;6.80;;;;;;;;;;5045524;28;20140;-58
2022/11/19 09:45:47;;;;;;;18.00;7.45;;;;;;;;;;5036474;28;20133;-58
2022/11/19 09:48:18;;;;;;;19.70;8.52;;;;;;;;;;5047025;28;20443;-58
2022/11/19 09:50:50;;;;;;;14.07;7.43;;;;;;;;;;5041183;28;20388;-58
2022/11/19 09:53:18;;;;;;;15.20;7.70;;;;;;;;;;5052389;28;20508;-58
2022/11/19 09:55:46;;;;;;;14.85;7.50;;;;;;;;;;5056774;28;20135;-58
2022/11/19 09:58:14;;;;;;;14.38;7.70;;;;;;;;;;5045355;28;20056;-58
2022/11/19 10:00:43;;;;;;;16.38;8.07;;;;;;;;;;5039769;28;20045;-58
2022/11/19 10:03:11;;;;;;;19.50;7.95;;;;;;;;;;5041696;28;20473;-58
2022/11/19 10:05:42;;;;;;;15.95;8.32;;;;;;;;;;5044149;28;20052;-59
2022/11/19 10:08:18;;;;;;;13.70;7.00;;;;;;;;;;5042024;28;20050;-58
2022/11/19 10:10:44;;;;;;;;;;;;;;;;;;5036410;28;20128;-58
2022/11/19 10:13:29;;;;;;;14.98;7.00;;;;;;;;;;5040076;28;20292;-57
2022/11/19 10:16:04;;;;;;;13.10;7.05;;;;;;;;;;5039966;28;20037;-59
2022/11/19 10:18:35;;;;;;;16.35;7.72;;;;;;;;;;5041632;28;20522;-59
2022/11/19 10:21:04;;;;;;;21.00;8.48;;;;;;;;;;5039770;28;20060;-59
2022/11/19 10:23:37;;;;;;;16.52;8.35;;;;;;;;;;5044585;28;20148;-60
2022/11/19 10:26:06;;;;;;;17.20;7.43;;;;;;;;;;5036297;28;20077;-59
2022/11/19 10:28:36;;;;;;;16.33;7.97;;;;;;;;;;5052213;28;20103;-59
2022/11/19 10:31:06;;;;;;;16.70;8.65;;;;;;;;;;5039793;28;20128;-59
2022/11/19 10:33:33;;;;;;;17.05;8.23;;;;;;;;;;5053115;28;20049;-59
2022/11/19 10:36:02;;;;;;;22.15;9.10;;;;;;;;;;5035080;28;20045;-59
2022/11/19 10:38:33;;;;;;;18.02;8.52;;;;;;;;;;5040264;28;20140;-60
2022/11/19 10:41:04;;;;;;;18.85;8.98;;;;;;;;;;5032939;28;20063;-60
2022/11/19 10:43:31;;;;;;;18.88;9.15;;;;;;;;;;5034860;28;20140;-60
2022/11/19 10:45:59;;;;;;;18.67;8.85;;;;;;;;;;5050921;28;20049;-60
2022/11/19 10:48:29;;;;;;;18.00;8.75;;;;;;;;;;5043849;28;20141;-60
2022/11/19 10:50:59;;;;;;;20.67;9.88;;;;;;;;;;5039938;28;20052;-60
2022/11/19 10:53:27;;;;;;;19.27;8.52;;;;;;;;;;5040972;28;20390;-60
2022/11/19 10:55:55;;;;;;;19.20;9.68;;;;;;;;;;5047939;28;20037;-60
2022/11/19 10:58:25;;;;;;;22.48;8.98;;;;;;;;;;5039332;28;20068;-59
2022/11/19 11:00:53;;;;;;;21.38;9.55;;;;;;;;;;5045271;28;20061;-63
2022/11/19 11:03:23;;;;;;;19.08;9.20;;;;;;;;;;5045983;28;20132;-60
2022/11/19 11:05:57;;;;;;;20.70;9.77;;;;;;;;;;5043011;28;20167;-60
2022/11/19 11:08:23;;;;;;;18.63;9.65;;;;;;;;;;5037414;28;20049;-61
2022/11/19 11:10:50;;;;;;;16.50;8.45;;;;;;;;;;5037059;28;20136;-61
2022/11/19 11:16:13;;;;;;;17.75;8.98;;;;;;;;;;5047651;28;20541;-61
2022/11/19 11:18:40;;;;;;;18.58;8.82;;;;;;;;;;5038970;28;20048;-61
2022/11/19 11:21:07;;;;;;;18.75;8.90;;;;;;;;;;5035354;28;20073;-62
2022/11/19 11:23:34;;;;;;;15.95;8.95;;;;;;;;;;5046840;28;20060;-62
2022/11/19 11:26:03;;;;;;;18.60;9.40;;;;;;;;;;5034204;28;20110;-62
2022/11/19 11:28:31;;;;;;;16.98;7.85;;;;;;;;;;5050778;28;20057;-62
2022/11/19 11:30:58;;;;;;;20.77;9.30;;;;;;;;;;5051800;28;20072;-61
2022/11/19 11:33:32;;;;;;;18.45;8.63;;;;;;;;;;5040939;28;20455;-61
2022/11/19 11:36:00;;;;;;;17.05;8.75;;;;;;;;;;5045679;28;20041;-60
2022/11/19 11:38:27;;;;;;;19.67;9.88;;;;;;;;;;5037446;28;20045;-61
2022/11/19 11:40:57;;;;;;;19.63;9.18;;;;;;;;;;5045618;28;20193;-62
2022/11/19 11:43:24;;;;;;;17.88;8.88;;;;;;;;;;5032098;28;20456;-62
2022/11/19 11:45:56;;;;;;;17.40;9.02;;;;;;;;;;5044369;28;20120;-61
2022/11/19 11:48:23;;;;;;;19.27;9.98;;;;;;;;;;5043032;28;20076;-62
2022/11/19 11:50:49;;;;;;;20.25;9.55;;;;;;;;;;5042360;28;20136;-62
2022/11/19 11:53:17;;;;;;;17.58;8.82;;;;;;;;;;5046698;28;20132;-62
2022/11/19 11:55:43;;;;;;;21.50;9.77;;;;;;;;;;5042962;28;20136;-62
2022/11/19 11:58:25;;;;;;;19.48;10.25;;;;;;;;;;5044050;28;20141;-61
2022/11/19 12:00:53;;;;;;;19.83;9.55;;;;;;;;;;5033021;28;20136;-63
2022/11/19 12:03:21;;;;;;;19.45;9.18;;;;;;;;;;5046553;28;20048;-63
2022/11/19 12:05:53;;;;;;;19.75;10.55;;;;;;;;;;5038775;28;20041;-62
2022/11/19 12:08:28;;;;;;;19.88;10.00;;;;;;;;;;5043789;28;20137;-62
2022/11/19 12:10:57;;;;;;;20.20;10.13;;;;;;;;;;5038470;28;20522;-62
2022/11/19 12:13:37;;;;;;;19.30;9.75;;;;;;;;;;5042735;28;20139;-62
2022/11/19 12:16:07;;;;;;;17.35;9.57;;;;;;;;;;5044090;28;20446;-61
2022/11/19 12:18:39;;;;;;;20.67;9.93;;;;;;;;;;5044723;28;20050;-61
2022/11/19 12:21:08;;;;;;;22.05;10.73;;;;;;;;;;5046040;28;20131;-61
2022/11/19 12:23:42;;;;;;;22.20;10.57;;;;;;;;;;5045445;28;20060;-60
2022/11/19 12:26:12;;;;;;;25.42;11.95;;;;;;;;;;5042782;28;20116;-59
2022/11/19 12:28:46;;;;;;;22.00;10.95;;;;;;;;;;5045532;28;20553;-59
2022/11/19 12:31:19;;;;;;;23.27;10.90;;;;;;;;;;5036755;28;20045;-61
2022/11/19 12:33:57;;;;;;;23.65;10.98;;;;;;;;;;5046279;28;20146;-60
2022/11/19 12:36:28;;;;;;;19.30;11.35;;;;;;;;;;5044636;28;20131;-60
2022/11/19 12:38:59;;;;;;;22.60;10.65;;;;;;;;;;5046879;28;20045;-60
2022/11/19 12:41:32;;;;;;;22.15;10.75;;;;;;;;;;5043097;28;20049;-61
2022/11/19 12:43:59;;;;;;;23.27;10.50;;;;;;;;;;5046589;28;20141;-61
2022/11/19 12:46:32;;;;;;;19.40;10.20;;;;;;;;;;5041880;28;20052;-60
2022/11/19 12:49:20;;;;;;;23.25;10.88;;;;;;;;;;5042216;28;20145;-60
2022/11/19 12:51:52;;;;;;;20.13;10.60;;;;;;;;;;5042346;28;20077;-60
2022/11/19 12:54:24;;;;;;;21.02;9.25;;;;;;;;;;5043519;28;20084;-61
2022/11/19 12:56:55;;;;;;;19.92;10.10;;;;;;;;;;5048071;28;20123;-60
2022/11/19 12:59:28;;;;;;;19.52;10.48;;;;;;;;;;5037744;28;20144;-61
2022/11/19 13:01:55;;;;;;;25.00;11.38;;;;;;;;;;5041630;28;20085;-61
2022/11/19 13:04:25;;;;;;;23.60;9.98;;;;;;;;;;5043519;28;20084;-61
2022/11/19 13:06:55;;;;;;;27.42;11.55;;;;;;;;;;5041875;28;20542;-59
2022/11/19 13:09:32;;;;;;;25.67;10.80;;;;;;;;;;5051817;28;20091;-61
2022/11/19 13:12:01;;;;;;;21.02;10.35;;;;;;;;;;5043114;28;20462;-61
2022/11/19 13:14:32;;;;;;;25.88;11.80;;;;;;;;;;5045622;28;20697;-61
2022/11/19 13:16:58;;;;;;;21.42;10.88;;;;;;;;;;5043902;28;20136;-61
2022/11/19 13:19:28;;;;;;;27.42;11.90;;;;;;;;;;5046083;28;20080;-60
2022/11/19 13:21:57;;;;;;;30.02;12.48;;;;;;;;;;5041246;28;20401;-60
2022/11/19 13:24:29;;;;;;;25.27;11.45;;;;;;;;;;5045443;28;20057;-60
2022/11/19 13:26:57;;;;;;;24.00;11.10;;;;;;;;;;5050324;28;20048;-61
2022/11/19 13:29:31;;;;;;;21.67;10.30;;;;;;;;;;5045888;28;20080;-61
2022/11/19 13:32:01;;;;;;;22.95;12.35;;;;;;;;;;5035215;28;20124;-61
2022/11/19 13:34:30;;;;;;;22.20;11.45;;;;;;;;;;5050255;28;20140;-62
2022/11/19 13:37:01;;;;;;;22.08;9.63;;;;;;;;;;5035412;28;20047;-62
2022/11/19 13:39:31;;;;;;;25.75;10.43;;;;;;;;;;5041357;28;20240;-61
2022/11/19 13:44:43;;;;;;;24.38;11.13;;;;;;;;;;5047210;28;20381;-61
2022/11/19 13:47:11;;;;;;;24.60;11.15;;;;;;;;;;5038456;28;20120;-61
2022/11/19 13:49:44;;;;;;;25.25;10.80;;;;;;;;;;5040481;28;20073;-61
2022/11/19 13:52:17;;;;;;;20.63;10.38;;;;;;;;;;5044320;28;20053;-61
2022/11/19 13:54:44;;;;;;;18.65;9.30;;;;;;;;;;5044277;28;20049;-61
2022/11/19 13:57:24;;;;;;;23.40;10.43;;;;;;;;;;5046583;28;20480;-61
2022/11/19 13:59:51;;;;;;;23.00;9.95;;;;;;;;;;5044871;28;20140;-62
2022/11/19 14:02:27;;;;;;;21.25;9.85;;;;;;;;;;5049198;28;20532;-62
2022/11/19 14:05:00;;;;;;;18.63;9.85;;;;;;;;;;5048959;28;20137;-62
2022/11/19 14:07:36;;;;;;;22.13;10.40;;;;;;;;;;5040128;28;20143;-62
2022/11/19 14:10:03;;;;;;;;;;;;;;;;;;5040827;28;20053;-61
2022/11/19 14:12:40;;;;;;;23.23;10.23;;;;;;;;;;5041472;28;19925;-60
2022/11/19 14:27:01;;;;;;;28.85;12.32;;;;;;;;;;5041106;28;20060;-63
2022/11/19 14:29:46;;;;;;;27.58;13.80;;;;;;;;;;5051435;28;20127;-62
2022/11/19 14:32:27;;;;;;;29.40;14.27;;;;;;;;;;5039718;28;20136;-60
2022/11/19 14:35:12;;;;;;;24.60;12.52;;;;;;;;;;5044742;28;20045;-62
2022/11/19 14:37:40;;;;;;;24.20;12.40;;;;;;;;;;5039373;28;20421;-62
2022/11/19 14:40:13;;;;;;;29.17;11.98;;;;;;;;;;5049325;28;20041;-60
2022/11/19 14:46:13;;;;;;;26.17;11.90;;;;;;;;;;5037345;28;20051;-60
2022/11/19 14:48:48;;;;;;;21.67;11.25;;;;;;;;;;5044413;28;20145;-60
2022/11/19 14:51:16;;;;;;;25.77;10.98;;;;;;;;;;5047835;28;20128;-60
2022/11/19 14:53:48;;;;;;;27.38;12.60;;;;;;;;;;5042305;28;20533;-62
2022/11/19 14:56:17;;;;;;;27.58;13.55;;;;;;;;;;5035981;28;20048;-62
2022/11/19 14:58:49;;;;;;;29.88;12.85;;;;;;;;;;5045666;28;20123;-61
2022/11/19 15:01:16;;;;;;;26.17;12.65;;;;;;;;;;5032950;28;20057;-62
2022/11/19 15:03:46;;;;;;;27.23;13.32;;;;;;;;;;5046326;28;20128;-62
2022/11/19 15:06:16;;;;;;;23.05;12.18;;;;;;;;;;5044280;28;20140;-61
2022/11/19 15:08:50;;;;;;;30.13;12.95;;;;;;;;;;5044471;28;20041;-61
2022/11/19 15:11:18;;;;;;;29.92;13.70;;;;;;;;;;5043339;28;20167;-61
2022/11/19 15:13:45;;;;;;;23.98;12.32;;;;;;;;;;5043328;28;20067;-61
2022/11/19 15:16:13;;;;;;;27.63;13.40;;;;;;;;;;5048433;28;20051;-62
2022/11/19 15:18:58;;;;;;;27.40;13.57;;;;;;;;;;5046707;28;20093;-61
2022/11/19 15:21:31;;;;;;;27.20;12.38;;;;;;;;;;5047381;28;20068;-61
2022/11/19 15:24:03;;;;;;;26.88;11.52;;;;;;;;;;5055407;28;20433;-61
2022/11/19 15:26:35;;;;;;;24.38;11.88;;;;;;;;;;5053258;28;20076;-62
2022/11/19 15:29:06;;;;;;;23.85;10.52;;;;;;;;;;5057507;28;20072;-61
2022/11/19 15:31:47;;;;;;;26.67;11.95;;;;;;;;;;5048707;28;20591;-61
2022/11/19 15:34:26;;;;;;;32.75;13.23;;;;;;;;;;5053322;28;20144;-62